createdAt,value
2022-09-11T00:00:26.474Z,14.70
2022-09-11T00:02:55.370Z,14.60
2022-09-11T00:05:23.718Z,14.60
2022-09-11T00:07:54.018Z,14.70
2022-09-11T00:10:25.960Z,14.60
2022-09-11T00:12:54.859Z,14.60
2022-09-11T00:15:26.634Z,14.60
2022-09-11T00:17:57.869Z,14.60
2022-09-11T00:20:30.641Z,14.50
2022-09-11T00:23:05.343Z,14.60
2022-09-11T00:25:38.438Z,14.60
2022-09-11T00:28:09.548Z,14.50
2022-09-11T00:30:37.872Z,14.40
2022-09-11T00:33:06.441Z,14.40
2022-09-11T00:35:35.093Z,14.40
2022-09-11T00:38:05.953Z,14.50
2022-09-11T00:40:34.409Z,14.70
2022-09-11T00:43:03.237Z,14.70
2022-09-11T00:45:33.825Z,14.70
2022-09-11T00:48:05.934Z,14.60
2022-09-11T00:50:37.333Z,14.50
2022-09-11T00:53:11.810Z,14.40
2022-09-11T00:55:45.754Z,14.40
2022-09-11T00:58:19.014Z,14.30
2022-09-11T01:00:47.997Z,14.20
2022-09-11T01:05:22.381Z,14.20
2022-09-11T01:07:55.110Z,14.30
2022-09-11T01:10:36.164Z,14.40
2022-09-11T01:13:12.334Z,14.60
2022-09-11T01:15:47.169Z,14.60
2022-09-11T01:18:28.419Z,14.60
2022-09-11T01:21:20.385Z,14.40
2022-09-11T01:24:21.293Z,14.30
2022-09-11T01:27:04.394Z,14.40
2022-09-11T01:29:46.860Z,14.50
2022-09-11T01:32:22.204Z,14.80
2022-09-11T01:34:59.196Z,14.90
2022-09-11T01:37:38.469Z,15.00
2022-09-11T01:40:18.964Z,15.10
2022-09-11T01:42:52.285Z,15.20
2022-09-11T01:45:24.358Z,15.30
2022-09-11T01:47:54.241Z,15.40
2022-09-11T01:50:26.291Z,15.40
2022-09-11T01:53:03.565Z,15.40
2022-09-11T01:55:47.769Z,15.40
2022-09-11T01:58:24.648Z,15.30
2022-09-11T02:00:58.487Z,15.20
2022-09-11T02:03:32.215Z,15.10
2022-09-11T02:06:06.262Z,15.10
2022-09-11T02:08:55.447Z,15.10
2022-09-11T02:11:24.796Z,15.00
2022-09-11T02:14:01.435Z,15.10
2022-09-11T02:16:46.473Z,15.30
2022-09-11T02:19:20.686Z,15.40
2022-09-11T02:21:51.521Z,15.50
2022-09-11T02:24:20.974Z,15.50
2022-09-11T02:26:53.446Z,15.50
2022-09-11T02:29:24.546Z,15.50
2022-09-11T02:32:00.566Z,15.50
2022-09-11T02:34:36.396Z,15.50
2022-09-11T02:37:20.585Z,15.60
2022-09-11T02:40:27.745Z,15.70
2022-09-11T02:43:21.136Z,15.80
2022-09-11T02:46:11.329Z,15.90
2022-09-11T02:48:53.348Z,16.00
2022-09-11T02:51:35.201Z,16.10
2022-09-11T02:54:11.726Z,16.10
2022-09-11T02:56:44.002Z,16.20
2022-09-11T02:59:19.593Z,16.40
2022-09-11T03:05:19.145Z,16.60
2022-09-11T03:07:47.740Z,16.70
2022-09-11T03:10:16.845Z,16.70
2022-09-11T03:12:45.746Z,16.80
2022-09-11T03:15:14.930Z,16.70
2022-09-11T03:17:44.591Z,16.70
2022-09-11T03:20:13.910Z,16.70
2022-09-11T03:22:44.911Z,16.80
2022-09-11T03:25:14.738Z,16.80
2022-09-11T03:27:45.202Z,16.90
2022-09-11T03:30:15.495Z,17.00
2022-09-11T03:32:47.848Z,17.10
2022-09-11T03:35:16.773Z,17.20
2022-09-11T03:37:56.405Z,17.20
2022-09-11T03:40:25.345Z,17.30
2022-09-11T03:42:54.422Z,17.20
2022-09-11T03:45:24.850Z,17.30
2022-09-11T03:47:55.027Z,17.40
2022-09-11T03:50:26.890Z,17.50
2022-09-11T03:52:57.618Z,17.60
2022-09-11T03:55:27.138Z,17.80
2022-09-11T03:57:55.575Z,17.90
2022-09-11T04:00:24.880Z,18.20
2022-09-11T04:02:55.816Z,18.40
2022-09-11T04:05:25.645Z,18.60
2022-09-11T04:07:58.432Z,18.80
2022-09-11T04:10:26.885Z,18.90
2022-09-11T04:12:55.419Z,18.90
2022-09-11T04:15:25.291Z,18.80
2022-09-11T04:18:05.626Z,18.90
2022-09-11T04:23:31.840Z,18.90
2022-09-11T04:26:02.218Z,18.90
2022-09-11T04:28:34.393Z,19.00
2022-09-11T04:31:10.066Z,19.00
2022-09-11T04:33:44.383Z,19.00
2022-09-11T04:36:21.346Z,19.00
2022-09-11T04:38:58.117Z,19.00
2022-09-11T04:41:28.364Z,19.00
2022-09-11T04:44:03.857Z,19.00
2022-09-11T04:46:34.639Z,19.00
2022-09-11T04:49:07.558Z,19.00
2022-09-11T04:51:38.438Z,19.00
2022-09-11T04:54:08.888Z,19.00
2022-09-11T04:56:47.826Z,19.00
2022-09-11T04:59:19.650Z,19.00
2022-09-11T05:05:18.612Z,19.00
2022-09-11T05:07:50.663Z,19.00
2022-09-11T05:10:21.035Z,19.00
2022-09-11T05:12:50.919Z,19.10
2022-09-11T05:15:20.047Z,19.10
2022-09-11T05:17:55.127Z,19.10
2022-09-11T05:20:25.579Z,19.10
2022-09-11T05:22:54.056Z,19.10
2022-09-11T05:25:23.186Z,19.00
2022-09-11T05:27:58.965Z,19.00
2022-09-11T05:30:27.850Z,19.00
2022-09-11T05:32:56.655Z,18.90
2022-09-11T05:35:32.147Z,19.00
2022-09-11T05:38:01.126Z,19.00
2022-09-11T05:40:30.644Z,18.90
2022-09-11T05:42:59.418Z,19.00
2022-09-11T05:45:28.250Z,19.10
2022-09-11T05:47:57.026Z,19.20
2022-09-11T05:50:27.411Z,19.30
2022-09-11T05:52:57.371Z,19.40
2022-09-11T05:55:26.650Z,19.40
2022-09-11T05:58:03.418Z,19.40
2022-09-11T06:00:32.321Z,19.50
2022-09-11T06:03:21.836Z,19.50
2022-09-11T06:06:00.493Z,19.50
2022-09-11T06:08:28.749Z,19.50
2022-09-11T06:10:58.682Z,19.50
2022-09-11T06:13:29.758Z,19.50
2022-09-11T06:15:58.252Z,19.40
2022-09-11T06:18:27.568Z,19.40
2022-09-11T06:21:02.615Z,19.40
2022-09-11T06:23:34.464Z,19.30
2022-09-11T06:26:11.106Z,19.20
2022-09-11T06:28:43.862Z,19.10
2022-09-11T06:31:16.564Z,19.10
2022-09-11T06:33:45.165Z,19.10
2022-09-11T06:36:19.799Z,19.10
2022-09-11T06:38:48.358Z,19.10
2022-09-11T06:41:17.772Z,19.10
2022-09-11T06:43:46.498Z,19.10
2022-09-11T06:46:16.629Z,19.10
2022-09-11T06:49:01.659Z,19.10
2022-09-11T06:51:31.861Z,19.10
2022-09-11T06:54:02.743Z,19.10
2022-09-11T06:56:32.470Z,19.10
2022-09-11T06:59:04.775Z,19.00
2022-09-11T07:01:33.415Z,19.00
2022-09-11T07:05:20.352Z,19.00
2022-09-11T07:07:50.530Z,19.10
2022-09-11T07:10:18.810Z,19.00
2022-09-11T07:12:47.459Z,19.00
2022-09-11T07:15:16.557Z,19.00
2022-09-11T07:17:48.671Z,18.90
2022-09-11T07:20:19.164Z,18.90
2022-09-11T07:22:47.884Z,19.00
2022-09-11T07:25:16.780Z,19.00
2022-09-11T07:27:45.465Z,19.00
2022-09-11T07:30:15.939Z,19.10
2022-09-11T07:32:44.907Z,19.10
2022-09-11T07:35:21.735Z,19.10
2022-09-11T07:37:52.125Z,19.20
2022-09-11T07:40:23.419Z,19.20
2022-09-11T07:42:52.579Z,19.30
2022-09-11T07:45:22.791Z,19.30
2022-09-11T07:47:52.317Z,19.30
2022-09-11T07:50:22.634Z,19.40
2022-09-11T07:52:53.216Z,19.60
2022-09-11T07:55:22.004Z,19.70
2022-09-11T07:58:57.959Z,20.10
2022-09-11T08:01:28.250Z,20.20
2022-09-11T08:04:02.155Z,20.50
2022-09-11T08:06:33.405Z,20.70
2022-09-11T08:09:06.405Z,20.90
2022-09-11T08:11:38.737Z,21.00
2022-09-11T08:14:09.710Z,21.00
2022-09-11T08:16:40.738Z,20.90
2022-09-11T08:19:11.523Z,21.00
2022-09-11T08:21:40.280Z,21.00
2022-09-11T08:24:11.931Z,21.00
2022-09-11T08:26:40.520Z,21.00
2022-09-11T08:29:10.631Z,21.10
2022-09-11T08:31:39.696Z,21.10
2022-09-11T08:34:08.218Z,20.90
2022-09-11T08:36:36.941Z,20.90
2022-09-11T08:39:05.917Z,20.70
2022-09-11T08:41:41.361Z,20.50
2022-09-11T08:44:23.116Z,20.20
2022-09-11T08:46:58.161Z,20.10
2022-09-11T08:49:29.945Z,20.20
2022-09-11T08:52:07.058Z,20.30
2022-09-11T08:54:38.256Z,20.50
2022-09-11T08:57:18.093Z,20.70
2022-09-11T09:00:05.011Z,21.00
2022-09-11T09:03:03.110Z,21.10
2022-09-11T09:08:48.980Z,21.90
2022-09-11T09:11:30.819Z,22.70
2022-09-11T09:14:22.691Z,23.30
2022-09-11T09:17:00.049Z,23.80
2022-09-11T09:19:33.449Z,25.10
2022-09-11T09:22:17.064Z,25.70
2022-09-11T09:24:51.263Z,26.10
2022-09-11T09:27:23.429Z,28.00
2022-09-11T09:29:56.129Z,28.30
2022-09-11T09:32:33.328Z,26.60
2022-09-11T09:35:06.645Z,24.60
2022-09-11T09:37:35.479Z,24.30
2022-09-11T09:40:09.984Z,25.50
2022-09-11T09:42:57.109Z,26.30
2022-09-11T09:45:39.561Z,26.10
2022-09-11T09:48:14.329Z,25.30
2022-09-11T09:50:45.352Z,26.60
2022-09-11T09:53:21.841Z,27.50
2022-09-11T09:55:53.287Z,26.70
2022-09-11T09:58:28.065Z,25.40
2022-09-11T10:00:56.636Z,25.30
2022-09-11T10:03:27.698Z,26.10
2022-09-11T10:05:59.488Z,26.80
2022-09-11T10:08:33.449Z,26.80
2022-09-11T10:11:08.374Z,26.90
2022-09-11T10:13:42.254Z,27.60
2022-09-11T10:16:22.243Z,28.00
2022-09-11T10:18:53.391Z,28.30
2022-09-11T10:21:29.580Z,27.20
2022-09-11T10:23:59.682Z,27.00
2022-09-11T10:26:35.034Z,26.70
2022-09-11T10:29:10.338Z,26.30
2022-09-11T10:31:42.307Z,26.50
2022-09-11T10:34:20.181Z,27.10
2022-09-11T10:36:55.107Z,27.00
2022-09-11T10:39:27.544Z,27.50
2022-09-11T10:41:59.779Z,27.70
2022-09-11T10:44:31.979Z,26.80
2022-09-11T10:47:17.621Z,26.70
2022-09-11T10:49:48.788Z,26.70
2022-09-11T10:52:24.165Z,27.60
2022-09-11T10:55:03.337Z,27.40
2022-09-11T10:57:39.742Z,27.00
2022-09-11T11:00:18.156Z,26.40
2022-09-11T11:02:55.049Z,26.20
2022-09-11T11:05:32.184Z,26.70
2022-09-11T11:08:32.473Z,27.60
2022-09-11T11:11:22.611Z,28.20
2022-09-11T11:14:21.380Z,28.10
2022-09-11T11:17:01.220Z,28.00
2022-09-11T11:19:50.459Z,27.20
2022-09-11T11:22:43.507Z,26.90
2022-09-11T11:25:19.409Z,26.50
2022-09-11T11:28:06.678Z,26.60
2022-09-11T11:30:43.405Z,26.70
2022-09-11T11:33:27.165Z,26.10
2022-09-11T11:36:07.404Z,25.90
2022-09-11T11:38:42.899Z,25.60
2022-09-11T11:41:16.566Z,25.50
2022-09-11T11:43:48.425Z,25.00
2022-09-11T11:46:22.622Z,24.90
2022-09-11T11:48:56.766Z,24.50
2022-09-11T11:51:31.408Z,24.30
2022-09-11T11:54:09.664Z,24.40
2022-09-11T11:56:43.955Z,24.50
2022-09-11T11:59:19.669Z,24.90
2022-09-11T12:01:56.432Z,24.60
2022-09-11T12:04:34.381Z,24.20
2022-09-11T12:07:04.761Z,24.30
2022-09-11T12:09:35.441Z,25.00
2022-09-11T12:12:08.906Z,25.30
2022-09-11T12:14:37.547Z,25.40
2022-09-11T12:17:24.179Z,25.40
2022-09-11T12:20:16.074Z,25.40
2022-09-11T12:22:51.714Z,25.80
2022-09-11T12:25:57.302Z,26.80
2022-09-11T12:28:28.336Z,27.00
2022-09-11T12:31:02.779Z,26.60
2022-09-11T12:33:55.745Z,26.10
2022-09-11T12:36:49.240Z,25.30
2022-09-11T12:39:26.058Z,24.60
2022-09-11T12:41:54.479Z,25.00
2022-09-11T12:45:00.003Z,25.50
2022-09-11T12:47:34.907Z,25.80
2022-09-11T12:50:17.198Z,26.00
2022-09-11T12:52:55.075Z,26.00
2022-09-11T12:55:33.282Z,26.00
2022-09-11T12:58:07.663Z,26.20
2022-09-11T13:00:41.327Z,26.30
2022-09-11T13:03:19.122Z,26.80
2022-09-11T13:05:56.266Z,27.50
2022-09-11T13:08:28.009Z,27.30
2022-09-11T13:11:42.974Z,26.40
2022-09-11T13:14:51.446Z,25.60
2022-09-11T13:17:30.829Z,24.70
2022-09-11T13:20:22.425Z,23.90
2022-09-11T13:22:57.628Z,23.00
2022-09-11T13:25:31.178Z,22.50
2022-09-11T13:28:03.012Z,22.20
2022-09-11T13:30:31.731Z,22.20
2022-09-11T13:33:08.295Z,22.40
2022-09-11T13:35:40.348Z,22.80
2022-09-11T13:38:18.702Z,23.50
2022-09-11T13:40:50.962Z,23.70
2022-09-11T13:43:23.720Z,23.80
2022-09-11T13:46:28.136Z,24.20
2022-09-11T13:49:02.899Z,23.90
2022-09-11T13:51:33.247Z,23.50
2022-09-11T13:54:14.494Z,23.20
2022-09-11T13:56:48.983Z,22.90
2022-09-11T13:59:41.802Z,23.30
2022-09-11T14:02:37.444Z,23.80
2022-09-11T14:05:15.968Z,23.40
2022-09-11T14:07:57.609Z,22.60
2022-09-11T14:10:29.860Z,22.10
2022-09-11T14:13:08.609Z,22.60
2022-09-11T14:15:41.760Z,23.30
2022-09-11T14:18:27.709Z,23.80
2022-09-11T14:21:00.739Z,24.80
2022-09-11T14:23:31.022Z,26.20
2022-09-11T14:26:16.149Z,26.50
2022-09-11T14:29:01.912Z,26.40
2022-09-11T14:31:38.490Z,26.10
2022-09-11T14:34:18.736Z,25.10
2022-09-11T14:36:52.863Z,24.50
2022-09-11T14:39:35.410Z,23.90
2022-09-11T14:42:07.747Z,23.10
2022-09-11T14:44:39.818Z,22.80
2022-09-11T14:47:14.023Z,22.70
2022-09-11T14:49:45.958Z,22.70
2022-09-11T14:52:17.818Z,22.80
2022-09-11T14:54:46.689Z,22.70
2022-09-11T14:57:20.613Z,23.00
2022-09-11T14:59:49.812Z,24.00
2022-09-11T15:02:20.274Z,24.80
2022-09-11T15:04:48.693Z,25.20
2022-09-11T15:07:23.259Z,25.20
2022-09-11T15:09:53.308Z,24.90
2022-09-11T15:12:22.735Z,24.90
2022-09-11T15:14:58.476Z,25.40
2022-09-11T15:17:31.804Z,25.90
2022-09-11T15:20:01.292Z,26.30
2022-09-11T15:22:31.413Z,26.50
2022-09-11T15:25:00.085Z,26.60
2022-09-11T15:27:29.016Z,26.30
2022-09-11T15:29:57.572Z,26.40
2022-09-11T15:32:26.121Z,26.60
2022-09-11T15:34:55.389Z,26.00
2022-09-11T15:37:24.051Z,25.30
2022-09-11T15:39:53.837Z,24.70
2022-09-11T15:42:22.619Z,24.80
2022-09-11T15:44:52.048Z,25.00
2022-09-11T15:47:20.641Z,25.80
2022-09-11T15:49:50.020Z,26.40
2022-09-11T15:52:20.000Z,26.10
2022-09-11T15:54:48.988Z,26.30
2022-09-11T15:57:20.064Z,26.00
2022-09-11T15:59:51.409Z,26.00
2022-09-11T16:02:21.744Z,26.00
2022-09-11T16:04:53.785Z,25.90
2022-09-11T16:07:23.666Z,25.20
2022-09-11T16:09:59.514Z,24.70
2022-09-11T16:12:30.105Z,24.60
2022-09-11T16:14:59.259Z,24.50
2022-09-11T16:17:34.142Z,24.30
2022-09-11T16:20:06.284Z,24.40
2022-09-11T16:22:34.853Z,24.40
2022-09-11T16:25:03.757Z,24.20
2022-09-11T16:27:34.861Z,24.00
2022-09-11T16:32:51.790Z,24.00
2022-09-11T16:35:20.994Z,23.90
2022-09-11T16:37:49.540Z,23.70
2022-09-11T16:40:18.707Z,23.50
2022-09-11T16:42:48.752Z,23.10
2022-09-11T16:45:17.222Z,22.90
2022-09-11T16:47:47.915Z,22.90
2022-09-11T16:50:17.561Z,22.80
2022-09-11T16:52:48.544Z,22.70
2022-09-11T16:55:17.075Z,22.50
2022-09-11T16:57:46.403Z,22.50
2022-09-11T17:00:16.570Z,22.20
2022-09-11T17:02:45.671Z,22.10
2022-09-11T17:05:14.161Z,21.70
2022-09-11T17:07:42.528Z,21.30
2022-09-11T17:10:15.061Z,21.00
2022-09-11T17:12:44.178Z,20.60
2022-09-11T17:15:13.892Z,20.00
2022-09-11T17:17:45.449Z,19.50
2022-09-11T17:20:16.449Z,18.90
2022-09-11T17:22:45.548Z,18.30
2022-09-11T17:25:14.020Z,17.90
2022-09-11T17:27:42.463Z,17.60
2022-09-11T17:30:12.213Z,17.30
2022-09-11T17:32:40.922Z,17.00
2022-09-11T17:35:12.117Z,16.90
2022-09-11T17:37:43.332Z,16.70
2022-09-11T17:40:14.056Z,16.40
2022-09-11T17:42:46.156Z,16.20
2022-09-11T17:45:15.798Z,16.00
2022-09-11T17:47:44.321Z,15.90
2022-09-11T17:50:14.669Z,15.70
2022-09-11T17:52:43.274Z,15.60
2022-09-11T17:55:12.151Z,15.50
2022-09-11T17:57:42.868Z,15.40
2022-09-11T18:00:13.025Z,15.30
2022-09-11T18:02:42.810Z,15.20
2022-09-11T18:05:11.746Z,15.20
2022-09-11T18:07:44.593Z,15.10
2022-09-11T18:10:12.950Z,15.00
2022-09-11T18:12:41.244Z,15.00
2022-09-11T18:15:11.489Z,14.90
2022-09-11T18:17:39.776Z,14.80
2022-09-11T18:20:10.166Z,14.70
2022-09-11T18:22:39.811Z,14.60
2022-09-11T18:25:11.016Z,14.50
2022-09-11T18:27:40.699Z,14.30
2022-09-11T18:30:12.775Z,14.20
2022-09-11T18:32:41.288Z,14.20
2022-09-11T18:35:12.270Z,14.10
2022-09-11T18:37:40.632Z,14.00
2022-09-11T18:40:11.966Z,13.90
2022-09-11T18:42:43.701Z,13.90
2022-09-11T18:45:12.879Z,13.80
2022-09-11T18:47:41.917Z,13.70
2022-09-11T18:50:11.183Z,13.70
2022-09-11T18:52:39.531Z,13.70
2022-09-11T18:55:08.531Z,13.60
2022-09-11T18:57:41.769Z,13.80
2022-09-11T19:00:17.859Z,13.70
2022-09-11T19:02:51.340Z,13.70
2022-09-11T19:05:24.365Z,13.70
2022-09-11T19:07:56.249Z,13.90
2022-09-11T19:10:25.322Z,14.00
2022-09-11T19:12:55.723Z,14.00
2022-09-11T19:15:25.333Z,13.80
2022-09-11T19:17:56.937Z,13.70
2022-09-11T19:20:25.554Z,13.60
2022-09-11T19:22:55.786Z,13.50
2022-09-11T19:25:30.496Z,13.50
2022-09-11T19:28:00.554Z,13.40
2022-09-11T19:30:29.201Z,13.40
2022-09-11T19:33:00.450Z,13.40
2022-09-11T19:35:30.402Z,13.40
2022-09-11T19:38:00.336Z,13.50
2022-09-11T19:40:31.809Z,13.40
2022-09-11T19:43:01.567Z,13.40
2022-09-11T19:45:30.484Z,13.50
2022-09-11T19:48:00.363Z,13.50
2022-09-11T19:50:34.061Z,13.60
2022-09-11T19:53:02.715Z,13.70
2022-09-11T19:55:35.510Z,13.60
2022-09-11T19:58:05.569Z,13.70
2022-09-11T20:00:40.317Z,13.80
2022-09-11T20:03:11.419Z,13.80
2022-09-11T20:05:41.927Z,13.80
2022-09-11T20:08:16.068Z,13.70
2022-09-11T20:10:49.194Z,13.70
2022-09-11T20:13:21.347Z,13.60
2022-09-11T20:15:50.176Z,13.60
2022-09-11T20:18:18.512Z,13.60
2022-09-11T20:20:47.177Z,13.70
2022-09-11T20:23:18.811Z,13.90
2022-09-11T20:25:48.881Z,13.80
2022-09-11T20:28:19.099Z,13.90
2022-09-11T20:30:48.697Z,13.90
2022-09-11T20:33:16.957Z,13.90
2022-09-11T20:35:46.771Z,13.80
2022-09-11T20:38:17.603Z,13.80
2022-09-11T20:40:48.900Z,13.80
2022-09-11T20:43:19.378Z,13.70
2022-09-11T20:45:50.783Z,13.60
2022-09-11T20:48:19.955Z,13.60
2022-09-11T20:50:54.619Z,13.50
2022-09-11T20:53:26.246Z,13.40
2022-09-11T20:55:55.350Z,13.30
2022-09-11T20:58:26.650Z,13.40
2022-09-11T21:00:55.367Z,13.40
2022-09-11T21:03:24.429Z,13.40
2022-09-11T21:05:53.037Z,13.60
2022-09-11T21:08:26.175Z,13.80
2022-09-11T21:10:54.615Z,13.70
2022-09-11T21:13:23.441Z,13.60
2022-09-11T21:15:54.261Z,13.60
2022-09-11T21:18:23.214Z,13.60
2022-09-11T21:20:56.398Z,13.70
2022-09-11T21:23:26.464Z,13.80
2022-09-11T21:25:54.933Z,13.90
2022-09-11T21:28:26.284Z,13.90
2022-09-11T21:30:58.810Z,13.80
2022-09-11T21:33:30.820Z,13.70
2022-09-11T21:36:00.482Z,13.50
2022-09-11T21:38:38.285Z,13.50
2022-09-11T21:41:12.840Z,13.50
2022-09-11T21:43:43.184Z,13.60
2022-09-11T21:46:14.988Z,13.70
2022-09-11T21:48:46.402Z,13.70
2022-09-11T21:51:24.355Z,13.60
2022-09-11T21:54:01.779Z,13.50
2022-09-11T21:56:32.356Z,13.40
2022-09-11T21:59:04.442Z,13.50
2022-09-11T22:01:35.362Z,13.40
2022-09-11T22:04:04.734Z,13.40
2022-09-11T22:06:34.461Z,13.30
2022-09-11T22:09:02.844Z,13.30
2022-09-11T22:11:31.744Z,13.30
2022-09-11T22:14:00.423Z,13.30
2022-09-11T22:16:32.869Z,13.30
2022-09-11T22:19:04.366Z,13.20
2022-09-11T22:21:32.897Z,13.20
2022-09-11T22:24:05.358Z,13.20
2022-09-11T22:26:38.585Z,13.20
2022-09-11T22:29:17.014Z,13.10
2022-09-11T22:31:47.475Z,13.10
2022-09-11T22:34:18.664Z,13.10
2022-09-11T22:36:48.467Z,13.10
2022-09-11T22:39:19.829Z,13.00
2022-09-11T22:41:48.482Z,13.10
2022-09-11T22:44:17.511Z,13.00
2022-09-11T22:46:49.577Z,12.90
2022-09-11T22:49:19.478Z,12.90
2022-09-11T22:51:48.042Z,13.00
2022-09-11T22:54:18.253Z,13.10
2022-09-11T22:56:46.918Z,13.00
2022-09-11T22:59:15.736Z,12.90
2022-09-11T23:01:47.697Z,12.90
2022-09-11T23:04:20.831Z,12.90
2022-09-11T23:07:06.569Z,12.90
2022-09-11T23:09:35.027Z,12.80
2022-09-11T23:12:05.441Z,12.80
2022-09-11T23:14:34.428Z,12.90
2022-09-11T23:17:03.072Z,13.10
2022-09-11T23:19:34.545Z,13.30
2022-09-11T23:22:02.945Z,13.30
2022-09-11T23:24:31.702Z,13.30
2022-09-11T23:27:00.964Z,13.20
2022-09-11T23:29:30.076Z,13.10
2022-09-11T23:31:58.509Z,13.10
2022-09-11T23:34:27.772Z,13.10
2022-09-11T23:36:57.839Z,12.90
2022-09-11T23:39:26.556Z,12.90
2022-09-11T23:41:55.017Z,12.70
2022-09-11T23:44:26.115Z,12.70
2022-09-11T23:46:54.803Z,12.60
2022-09-11T23:49:25.796Z,12.60
2022-09-11T23:51:54.908Z,12.50
2022-09-11T23:54:25.571Z,12.60
2022-09-11T23:56:54.146Z,12.80
2022-09-11T23:59:23.061Z,12.80
